createdAt,value
2018-09-17T00:01:09.338Z,91.20
2018-09-17T00:03:38.525Z,91.10
2018-09-17T00:06:07.784Z,91.00
2018-09-17T00:08:36.914Z,91.00
2018-09-17T00:11:06.076Z,91.10
2018-09-17T00:13:35.227Z,91.00
2018-09-17T00:16:04.349Z,91.00
2018-09-17T00:18:33.464Z,91.10
2018-09-17T00:21:02.693Z,91.50
2018-09-17T00:23:31.861Z,91.30
2018-09-17T00:26:01.332Z,91.50
2018-09-17T00:28:30.466Z,91.70
2018-09-17T00:30:59.565Z,92.10
2018-09-17T00:33:28.716Z,91.60
2018-09-17T00:35:57.847Z,91.90
2018-09-17T00:38:27.034Z,91.80
2018-09-17T00:40:56.174Z,91.90
2018-09-17T00:43:25.313Z,91.90
2018-09-17T00:45:54.426Z,91.70
2018-09-17T00:48:23.555Z,91.90
2018-09-17T00:50:52.680Z,91.90
2018-09-17T00:53:21.808Z,91.80
2018-09-17T00:55:50.907Z,91.60
2018-09-17T00:58:20.557Z,91.50
2018-09-17T01:00:49.773Z,91.50
2018-09-17T01:03:18.841Z,91.80
2018-09-17T01:05:47.986Z,92.20
2018-09-17T01:08:17.114Z,92.10
2018-09-17T01:10:46.252Z,92.10
2018-09-17T01:13:15.441Z,92.30
2018-09-17T01:15:44.608Z,92.60
2018-09-17T01:18:13.710Z,92.60
2018-09-17T01:20:42.818Z,92.70
2018-09-17T01:23:11.957Z,93.00
2018-09-17T01:25:41.117Z,93.00
2018-09-17T01:28:10.288Z,93.00
2018-09-17T01:30:39.476Z,93.00
2018-09-17T01:33:08.894Z,93.20
2018-09-17T01:35:38.190Z,93.70
2018-09-17T01:38:07.285Z,94.10
2018-09-17T01:40:36.498Z,94.50
2018-09-17T01:43:06.133Z,94.90
2018-09-17T01:45:35.305Z,95.00
2018-09-17T01:48:04.417Z,94.60
2018-09-17T01:50:33.684Z,94.30
2018-09-17T01:53:02.762Z,94.40
2018-09-17T01:55:31.858Z,94.80
2018-09-17T01:58:00.979Z,94.90
2018-09-17T02:00:30.109Z,94.80
2018-09-17T02:02:59.272Z,94.90
2018-09-17T02:05:28.394Z,95.10
2018-09-17T02:07:57.573Z,94.80
2018-09-17T02:10:26.861Z,94.50
2018-09-17T02:12:55.969Z,95.20
2018-09-17T02:15:25.540Z,95.90
2018-09-17T02:17:54.753Z,95.80
2018-09-17T02:20:23.911Z,95.50
2018-09-17T02:22:52.973Z,95.40
2018-09-17T02:25:22.090Z,95.30
2018-09-17T02:27:51.257Z,95.40
2018-09-17T02:30:20.385Z,95.40
2018-09-17T02:32:49.547Z,95.60
2018-09-17T02:35:18.749Z,96.10
2018-09-17T02:37:47.891Z,96.10
2018-09-17T02:40:17.997Z,95.40
2018-09-17T02:42:49.016Z,94.60
2018-09-17T02:45:18.945Z,94.10
2018-09-17T02:47:48.083Z,94.30
2018-09-17T02:50:17.246Z,94.90
2018-09-17T02:52:46.398Z,94.90
2018-09-17T02:55:15.554Z,95.50
2018-09-17T02:57:44.662Z,95.50
2018-09-17T03:00:13.929Z,95.70
2018-09-17T03:02:43.037Z,95.60
2018-09-17T03:05:12.193Z,95.80
2018-09-17T03:07:41.359Z,96.50
2018-09-17T03:10:10.483Z,97.10
2018-09-17T03:12:39.989Z,97.40
2018-09-17T03:15:20.460Z,97.40
2018-09-17T03:17:49.659Z,97.20
2018-09-17T03:20:18.842Z,97.30
2018-09-17T03:22:47.966Z,97.40
2018-09-17T03:25:17.153Z,97.40
2018-09-17T03:27:46.255Z,97.10
2018-09-17T03:30:15.371Z,97.10
2018-09-17T03:32:44.492Z,97.30
2018-09-17T03:35:13.642Z,97.50
2018-09-17T03:37:42.761Z,97.40
2018-09-17T03:40:11.911Z,97.30
2018-09-17T03:42:41.045Z,97.00
2018-09-17T03:45:10.212Z,96.90
2018-09-17T03:47:39.313Z,97.10
2018-09-17T03:50:08.504Z,97.70
2018-09-17T03:52:37.639Z,97.40
2018-09-17T03:55:06.794Z,97.20
2018-09-17T03:57:35.893Z,97.00
2018-09-17T04:00:05.161Z,97.10
2018-09-17T04:02:34.245Z,97.10
2018-09-17T04:05:03.380Z,97.20
2018-09-17T04:07:32.560Z,97.20
2018-09-17T04:10:01.711Z,96.90
2018-09-17T04:12:30.868Z,97.20
2018-09-17T04:15:00.105Z,97.20
2018-09-17T04:17:29.225Z,97.00
2018-09-17T04:19:58.354Z,96.90
2018-09-17T04:22:27.454Z,96.10
2018-09-17T04:24:56.662Z,95.90
2018-09-17T04:27:25.918Z,95.80
2018-09-17T04:29:55.054Z,95.60
2018-09-17T04:32:24.196Z,95.60
2018-09-17T04:34:53.291Z,96.00
2018-09-17T04:37:22.407Z,95.60
2018-09-17T04:39:51.628Z,95.70
2018-09-17T04:42:20.832Z,96.00
2018-09-17T04:44:49.925Z,95.80
2018-09-17T04:47:19.022Z,96.20
2018-09-17T04:49:48.153Z,96.30
2018-09-17T04:52:17.321Z,96.60
2018-09-17T04:54:46.470Z,96.70
2018-09-17T04:57:15.635Z,96.80
2018-09-17T04:59:44.810Z,96.70
2018-09-17T05:02:13.927Z,96.60
2018-09-17T05:04:43.048Z,96.40
2018-09-17T05:07:12.328Z,96.40
2018-09-17T05:09:41.422Z,96.30
2018-09-17T05:12:10.534Z,96.40
2018-09-17T05:14:39.653Z,96.40
2018-09-17T05:17:08.762Z,96.20
2018-09-17T05:19:38.024Z,96.70
2018-09-17T05:22:07.146Z,96.60
2018-09-17T05:24:36.332Z,96.50
2018-09-17T05:27:05.523Z,96.60
2018-09-17T05:29:34.672Z,96.90
2018-09-17T05:32:03.898Z,97.40
2018-09-17T05:34:33.069Z,97.90
2018-09-17T05:37:02.460Z,97.90
2018-09-17T05:39:31.841Z,98.30
2018-09-17T05:42:00.969Z,98.20
2018-09-17T05:44:30.203Z,97.60
2018-09-17T05:46:59.244Z,97.20
2018-09-17T05:49:28.390Z,97.30
2018-09-17T05:51:57.513Z,97.40
2018-09-17T05:54:26.640Z,96.60
2018-09-17T05:56:55.747Z,95.60
2018-09-17T05:59:24.895Z,94.80
2018-09-17T06:01:54.043Z,95.40
2018-09-17T06:04:23.196Z,95.90
2018-09-17T06:06:52.957Z,96.40
2018-09-17T06:09:22.073Z,96.40
2018-09-17T06:11:51.214Z,96.70
2018-09-17T06:14:20.319Z,96.20
2018-09-17T06:16:49.457Z,96.10
2018-09-17T06:19:18.630Z,96.50
2018-09-17T06:21:47.848Z,96.30
2018-09-17T06:24:17.012Z,96.40
2018-09-17T06:26:46.181Z,96.40
2018-09-17T06:29:15.273Z,96.40
2018-09-17T06:31:44.486Z,96.40
2018-09-17T06:34:13.649Z,96.50
2018-09-17T06:36:42.858Z,96.80
2018-09-17T06:39:11.994Z,97.20
2018-09-17T06:41:41.383Z,96.80
2018-09-17T06:44:10.560Z,96.50
2018-09-17T06:46:39.729Z,96.50
2018-09-17T06:49:08.898Z,96.20
2018-09-17T06:51:38.039Z,96.00
2018-09-17T06:54:07.245Z,95.90
2018-09-17T06:56:36.425Z,96.00
2018-09-17T06:59:05.598Z,95.90
2018-09-17T07:01:34.976Z,96.00
2018-09-17T07:04:04.834Z,96.00
2018-09-17T07:06:33.946Z,96.00
2018-09-17T07:09:03.421Z,95.80
2018-09-17T07:11:32.553Z,95.50
2018-09-17T07:14:01.666Z,95.30
2018-09-17T07:16:30.814Z,95.40
2018-09-17T07:19:00.103Z,95.40
2018-09-17T07:21:29.244Z,94.60
2018-09-17T07:23:58.408Z,94.60
2018-09-17T07:26:27.605Z,94.60
2018-09-17T07:28:56.775Z,94.90
2018-09-17T07:31:25.961Z,94.70
2018-09-17T07:33:55.136Z,94.80
2018-09-17T07:36:24.347Z,95.10
2018-09-17T07:38:53.400Z,94.60
2018-09-17T07:41:22.558Z,94.40
2018-09-17T07:43:51.701Z,94.30
2018-09-17T07:46:20.908Z,94.20
2018-09-17T07:48:50.062Z,94.00
2018-09-17T07:51:19.234Z,93.70
2018-09-17T07:53:48.381Z,93.50
2018-09-17T07:56:17.550Z,93.40
2018-09-17T07:58:47.022Z,93.40
2018-09-17T08:01:16.109Z,93.30
2018-09-17T08:03:45.534Z,93.40
2018-09-17T08:06:14.633Z,93.10
2018-09-17T08:08:43.796Z,92.80
2018-09-17T08:11:13.042Z,92.70
2018-09-17T08:13:42.238Z,92.60
2018-09-17T08:16:11.467Z,92.30
2018-09-17T08:18:40.581Z,92.10
2018-09-17T08:21:09.761Z,91.80
2018-09-17T08:23:38.898Z,91.50
2018-09-17T08:26:08.103Z,91.20
2018-09-17T08:28:37.363Z,90.90
2018-09-17T08:31:06.675Z,90.50
2018-09-17T08:33:36.359Z,90.20
2018-09-17T08:36:05.642Z,90.30
2018-09-17T08:38:34.821Z,90.10
2018-09-17T08:41:03.968Z,90.00
2018-09-17T08:43:33.138Z,89.50
2018-09-17T08:46:02.469Z,88.30
2018-09-17T08:48:31.622Z,88.10
2018-09-17T08:51:00.777Z,87.10
2018-09-17T08:53:29.963Z,87.60
2018-09-17T08:56:00.725Z,84.10
2018-09-17T08:58:39.004Z,83.70
2018-09-17T09:01:13.632Z,83.80
2018-09-17T09:03:48.217Z,84.30
2018-09-17T09:06:19.294Z,82.30
2018-09-17T09:08:49.074Z,81.10
2018-09-17T09:11:21.745Z,81.40
2018-09-17T09:13:55.099Z,80.90
2018-09-17T09:16:25.110Z,80.30
2018-09-17T09:18:54.282Z,79.00
2018-09-17T09:21:23.387Z,79.40
2018-09-17T09:23:52.494Z,78.20
2018-09-17T09:26:21.703Z,78.30
2018-09-17T09:28:50.838Z,77.90
2018-09-17T09:31:20.036Z,77.90
2018-09-17T09:33:49.377Z,78.00
2018-09-17T09:36:18.546Z,77.60
2018-09-17T09:38:47.769Z,77.90
2018-09-17T09:41:16.959Z,78.30
2018-09-17T09:43:46.151Z,78.50
2018-09-17T09:46:15.342Z,78.40
2018-09-17T09:48:44.427Z,78.10
2018-09-17T09:51:13.571Z,77.70
2018-09-17T09:53:42.728Z,77.80
2018-09-17T09:56:11.862Z,78.10
2018-09-17T09:58:41.083Z,76.60
2018-09-17T10:01:15.462Z,76.60
2018-09-17T10:03:45.326Z,75.60
2018-09-17T10:06:15.668Z,76.50
2018-09-17T10:08:50.282Z,75.50
2018-09-17T10:11:24.749Z,75.30
2018-09-17T10:13:59.284Z,75.60
2018-09-17T10:16:28.465Z,75.80
2018-09-17T10:19:02.918Z,75.70
2018-09-17T10:21:35.823Z,74.80
2018-09-17T10:24:04.950Z,74.30
2018-09-17T10:26:34.105Z,74.70
2018-09-17T10:29:03.346Z,74.40
2018-09-17T10:31:32.438Z,74.60
2018-09-17T10:34:01.640Z,74.90
2018-09-17T10:36:30.735Z,74.90
2018-09-17T10:38:59.827Z,75.30
2018-09-17T10:41:28.930Z,74.40
2018-09-17T10:43:58.119Z,75.00
2018-09-17T10:46:27.217Z,74.00
2018-09-17T10:48:56.425Z,73.70
2018-09-17T10:51:25.615Z,73.30
2018-09-17T10:53:54.821Z,72.50
2018-09-17T10:56:23.941Z,71.40
2018-09-17T10:58:53.117Z,72.40
2018-09-17T11:01:22.762Z,68.50
2018-09-17T11:03:52.001Z,71.20
2018-09-17T11:06:21.215Z,69.80
2018-09-17T11:08:50.410Z,68.20
2018-09-17T11:11:19.618Z,68.00
2018-09-17T11:13:48.748Z,68.70
2018-09-17T11:16:17.884Z,68.00
2018-09-17T11:18:47.110Z,67.70
2018-09-17T11:21:16.248Z,68.30
2018-09-17T11:23:45.507Z,67.70
2018-09-17T11:26:14.649Z,66.30
2018-09-17T11:28:43.833Z,66.30
2018-09-17T11:31:13.042Z,66.40
2018-09-17T11:33:42.383Z,66.60
2018-09-17T11:36:11.524Z,67.00
2018-09-17T11:38:40.666Z,67.10
2018-09-17T11:41:09.820Z,64.70
2018-09-17T11:43:38.977Z,64.90
2018-09-17T11:46:09.790Z,65.10
2018-09-17T11:48:39.014Z,65.40
2018-09-17T11:51:08.314Z,64.60
2018-09-17T11:53:37.544Z,64.20
2018-09-17T11:56:06.621Z,64.40
2018-09-17T11:58:35.828Z,64.50
2018-09-17T12:01:10.360Z,64.50
2018-09-17T12:03:44.828Z,64.10
2018-09-17T12:06:18.257Z,65.50
2018-09-17T12:08:47.354Z,64.40
2018-09-17T12:11:16.487Z,65.40
2018-09-17T12:13:45.641Z,65.10
2018-09-17T12:16:14.774Z,63.70
2018-09-17T12:18:43.964Z,63.50
2018-09-17T12:21:13.239Z,61.50
2018-09-17T12:23:42.334Z,63.10
2018-09-17T12:26:11.523Z,62.10
2018-09-17T12:28:40.626Z,61.10
2018-09-17T12:31:09.745Z,61.20
2018-09-17T12:33:38.927Z,60.40
2018-09-17T12:36:08.031Z,59.90
2018-09-17T12:38:37.152Z,59.50
2018-09-17T12:41:06.700Z,60.60
2018-09-17T12:43:35.853Z,59.00
2018-09-17T12:46:05.026Z,59.20
2018-09-17T12:48:34.171Z,59.10
2018-09-17T12:51:03.335Z,55.60
2018-09-17T12:53:32.554Z,56.10
2018-09-17T12:56:01.694Z,57.30
2018-09-17T12:58:30.806Z,55.60
2018-09-17T13:00:59.930Z,55.20
2018-09-17T13:03:29.068Z,63.10
2018-09-17T13:05:58.225Z,54.10
2018-09-17T13:08:27.330Z,54.30
2018-09-17T13:10:56.498Z,55.20
2018-09-17T13:13:25.619Z,53.70
2018-09-17T13:15:55.681Z,52.80
2018-09-17T13:18:25.932Z,53.10
2018-09-17T13:20:55.157Z,54.10
2018-09-17T13:23:24.265Z,57.10
2018-09-17T13:25:53.402Z,58.10
2018-09-17T13:28:22.538Z,56.10
2018-09-17T13:38:17.892Z,88.90
2018-09-17T13:40:47.038Z,89.60
2018-09-17T13:43:16.174Z,88.60
2018-09-17T13:45:45.383Z,87.30
2018-09-17T13:48:14.473Z,88.50
2018-09-17T13:50:43.608Z,86.00
2018-09-17T13:53:12.918Z,86.40
2018-09-17T13:55:41.934Z,86.80
2018-09-17T13:58:11.071Z,87.90
2018-09-17T14:00:40.221Z,88.50
2018-09-17T14:03:09.427Z,88.40
2018-09-17T14:05:39.314Z,89.10
2018-09-17T14:08:08.538Z,89.40
2018-09-17T14:10:37.942Z,89.50
2018-09-17T14:13:07.218Z,87.40
2018-09-17T14:15:36.382Z,86.60
2018-09-17T14:18:05.545Z,87.10
2018-09-17T14:20:34.702Z,87.60
2018-09-17T14:23:03.941Z,87.00
2018-09-17T14:25:33.072Z,86.00
2018-09-17T14:28:02.294Z,87.10
2018-09-17T14:30:31.433Z,85.50
2018-09-17T14:33:06.019Z,85.90
2018-09-17T14:35:35.053Z,86.70
2018-09-17T14:38:04.202Z,86.30
2018-09-17T14:40:33.365Z,86.80
2018-09-17T14:43:02.705Z,86.40
2018-09-17T14:45:31.940Z,84.40
2018-09-17T14:48:01.137Z,86.40
2018-09-17T14:50:30.267Z,86.90
2018-09-17T14:52:59.551Z,84.60
2018-09-17T14:55:28.751Z,84.20
2018-09-17T14:57:57.873Z,79.40
2018-09-17T15:00:27.028Z,80.70
2018-09-17T15:02:56.233Z,83.90
2018-09-17T15:05:25.438Z,84.40
2018-09-17T15:07:54.591Z,84.90
2018-09-17T15:10:23.830Z,83.80
2018-09-17T15:12:52.958Z,83.20
2018-09-17T15:15:22.134Z,82.70
2018-09-17T15:17:51.236Z,85.20
2018-09-17T15:20:20.399Z,85.30
2018-09-17T15:22:49.527Z,82.30
2018-09-17T15:25:18.598Z,81.30
2018-09-17T15:27:48.037Z,84.10
2018-09-17T15:30:17.155Z,81.90
2018-09-17T15:32:46.298Z,83.00
2018-09-17T15:35:15.506Z,82.30
2018-09-17T15:37:45.080Z,81.30
2018-09-17T15:40:14.198Z,83.40
2018-09-17T15:42:44.208Z,81.00
2018-09-17T15:45:13.714Z,82.40
2018-09-17T15:47:43.024Z,81.30
2018-09-17T15:50:12.362Z,80.30
2018-09-17T15:52:41.515Z,80.50
2018-09-17T15:55:10.671Z,80.70
2018-09-17T15:57:39.834Z,80.70
2018-09-17T16:00:09.733Z,80.40
2018-09-17T16:02:38.912Z,80.40
2018-09-17T16:05:08.132Z,80.30
2018-09-17T16:07:37.634Z,80.10
2018-09-17T16:10:07.542Z,80.10
2018-09-17T16:12:36.874Z,80.50
2018-09-17T16:15:06.177Z,68.50
2018-09-17T16:17:35.455Z,68.00
2018-09-17T16:20:04.665Z,68.90
2018-09-17T16:22:33.854Z,68.70
2018-09-17T16:25:03.027Z,68.30
2018-09-17T16:27:32.202Z,69.20
2018-09-17T16:30:01.362Z,71.00
2018-09-17T16:32:30.530Z,72.50
2018-09-17T16:34:59.666Z,72.30
2018-09-17T16:37:28.804Z,74.50
2018-09-17T16:39:58.012Z,74.50
2018-09-17T16:42:27.138Z,73.60
2018-09-17T16:44:56.407Z,66.40
2018-09-17T16:47:25.584Z,66.60
2018-09-17T16:49:54.874Z,67.50
2018-09-17T16:52:24.106Z,70.60
2018-09-17T16:54:53.246Z,74.10
2018-09-17T16:57:22.500Z,80.20
2018-09-17T16:59:51.835Z,82.70
2018-09-17T17:02:21.036Z,81.40
2018-09-17T17:04:50.333Z,81.90
2018-09-17T17:07:19.495Z,81.10
2018-09-17T17:09:48.649Z,83.10
2018-09-17T17:12:17.830Z,82.50
2018-09-17T17:14:47.003Z,85.90
2018-09-17T17:17:16.288Z,85.10
2018-09-17T17:19:45.405Z,86.30
2018-09-17T17:22:14.628Z,85.40
2018-09-17T17:24:43.701Z,85.80
2018-09-17T17:27:12.865Z,86.60
2018-09-17T17:29:41.991Z,87.00
2018-09-17T17:32:11.218Z,86.30
2018-09-17T17:34:40.387Z,77.90
2018-09-17T17:37:09.560Z,83.20
2018-09-17T17:39:38.848Z,88.90
2018-09-17T17:42:08.778Z,87.00
2018-09-17T17:44:37.921Z,88.00
2018-09-17T17:47:07.282Z,76.50
2018-09-17T17:49:36.480Z,77.80
2018-09-17T17:52:06.073Z,78.50
2018-09-17T17:54:35.204Z,83.70
2018-09-17T17:57:05.043Z,88.30
2018-09-17T17:59:34.264Z,88.80
2018-09-17T18:02:04.980Z,88.50
2018-09-17T18:04:34.261Z,87.80
2018-09-17T18:07:03.669Z,88.40
2018-09-17T18:09:32.791Z,89.50
2018-09-17T18:12:01.992Z,89.30
2018-09-17T18:14:31.306Z,90.00
2018-09-17T18:17:00.523Z,89.30
2018-09-17T18:19:29.730Z,89.20
2018-09-17T18:21:58.954Z,89.70
2018-09-17T18:24:28.169Z,87.90
2018-09-17T18:26:57.565Z,88.60
2018-09-17T18:29:26.867Z,86.30
2018-09-17T18:31:56.350Z,89.30
2018-09-17T18:34:25.656Z,89.90
2018-09-17T18:36:55.108Z,90.10
2018-09-17T18:39:24.510Z,90.40
2018-09-17T18:41:53.728Z,90.40
2018-09-17T18:44:23.281Z,90.50
2018-09-17T18:46:52.597Z,90.30
2018-09-17T18:49:21.866Z,82.00
2018-09-17T18:51:51.354Z,85.30
2018-09-17T18:54:20.877Z,87.30
2018-09-17T18:56:50.304Z,89.80
2018-09-17T18:59:24.629Z,91.20
2018-09-17T19:01:59.699Z,91.20
2018-09-17T19:04:28.999Z,91.30
2018-09-17T19:06:58.371Z,91.00
2018-09-17T19:09:33.006Z,90.70
2018-09-17T19:12:02.529Z,90.70
2018-09-17T19:14:37.157Z,90.90
2018-09-17T19:17:11.608Z,90.70
2018-09-17T19:19:41.036Z,90.90
2018-09-17T19:22:15.871Z,90.90
2018-09-17T19:24:45.000Z,90.80
2018-09-17T19:27:14.321Z,91.60
2018-09-17T19:29:43.530Z,91.50
2018-09-17T19:32:12.762Z,91.40
2018-09-17T19:34:41.827Z,91.70
2018-09-17T19:37:16.363Z,91.50
2018-09-17T19:39:50.863Z,91.00
2018-09-17T19:42:19.995Z,69.60
2018-09-17T19:44:54.476Z,69.70
2018-09-17T19:47:23.595Z,70.20
2018-09-17T19:49:52.779Z,71.30
2018-09-17T19:52:24.228Z,70.60
2018-09-17T19:54:54.034Z,70.40
2018-09-17T19:57:28.513Z,71.40
2018-09-17T19:59:59.003Z,71.10
2018-09-17T20:02:28.226Z,71.20
2018-09-17T20:05:02.764Z,72.30
2018-09-17T20:07:31.957Z,72.40
2018-09-17T20:10:01.221Z,73.10
2018-09-17T20:12:30.395Z,73.30
2018-09-17T20:14:59.615Z,73.30
2018-09-17T20:17:29.008Z,73.70
2018-09-17T20:19:58.421Z,74.00
2018-09-17T20:22:27.755Z,74.00
2018-09-17T20:24:56.928Z,74.10
2018-09-17T20:27:26.141Z,75.00
2018-09-17T20:29:55.426Z,75.70
2018-09-17T20:32:24.673Z,75.90
2018-09-17T20:34:54.094Z,75.50
2018-09-17T20:37:23.311Z,75.50
2018-09-17T20:39:52.610Z,75.70
2018-09-17T20:42:21.773Z,75.90
2018-09-17T20:44:50.957Z,76.10
2018-09-17T20:47:20.274Z,76.20
2018-09-17T20:49:49.440Z,77.20
2018-09-17T20:52:18.675Z,77.70
2018-09-17T20:54:47.842Z,78.50
2018-09-17T20:59:52.590Z,78.80
2018-09-17T21:02:21.754Z,79.10
2018-09-17T21:04:50.946Z,79.90
2018-09-17T21:07:20.244Z,80.10
2018-09-17T21:09:49.373Z,80.10
2018-09-17T21:12:18.734Z,80.20
2018-09-17T21:14:47.946Z,80.60
2018-09-17T21:17:17.139Z,80.90
2018-09-17T21:19:46.319Z,81.20
2018-09-17T21:22:15.466Z,80.90
2018-09-17T21:24:45.083Z,80.30
2018-09-17T21:27:14.376Z,79.90
2018-09-17T21:29:43.509Z,79.40
2018-09-17T21:32:12.730Z,80.00
2018-09-17T21:34:41.967Z,80.90
2018-09-17T21:37:11.412Z,81.00
2018-09-17T21:39:40.530Z,80.40
2018-09-17T21:42:09.721Z,80.30
2018-09-17T21:44:38.834Z,80.80
2018-09-17T21:47:08.019Z,81.40
2018-09-17T21:49:37.188Z,81.00
2018-09-17T21:52:06.379Z,81.00
2018-09-17T21:54:36.610Z,81.30
2018-09-17T21:57:06.024Z,81.90
2018-09-17T21:59:35.121Z,82.20
2018-09-17T22:02:04.332Z,82.40
2018-09-17T22:04:33.491Z,82.90
2018-09-17T22:07:02.634Z,84.20
2018-09-17T22:09:31.777Z,84.00
2018-09-17T22:12:00.905Z,84.00
2018-09-17T22:14:30.074Z,84.20
2018-09-17T22:16:59.247Z,83.90
2018-09-17T22:19:28.403Z,83.70
2018-09-17T22:21:57.502Z,83.70
2018-09-17T22:24:26.647Z,83.60
2018-09-17T22:26:55.770Z,83.50
2018-09-17T22:29:24.938Z,83.20
2018-09-17T22:31:54.087Z,82.90
2018-09-17T22:34:23.232Z,82.80
2018-09-17T22:36:52.432Z,82.90
2018-09-17T22:39:21.679Z,83.60
2018-09-17T22:41:50.788Z,84.10
2018-09-17T22:44:19.932Z,84.30
2018-09-17T22:46:49.142Z,84.60
2018-09-17T22:49:18.317Z,84.60
2018-09-17T22:51:47.513Z,84.60
2018-09-17T22:54:16.646Z,84.40
2018-09-17T22:56:45.980Z,84.00
2018-09-17T22:59:15.256Z,84.70
2018-09-17T23:01:44.398Z,84.90
2018-09-17T23:04:13.549Z,85.00
2018-09-17T23:06:42.734Z,85.20
2018-09-17T23:09:12.168Z,85.50
2018-09-17T23:11:41.313Z,85.10
2018-09-17T23:14:10.448Z,85.40
2018-09-17T23:16:39.787Z,85.40
2018-09-17T23:19:08.873Z,85.80
2018-09-17T23:21:38.007Z,86.40
2018-09-17T23:24:07.200Z,86.30
2018-09-17T23:26:36.309Z,86.00
2018-09-17T23:29:05.482Z,86.00
2018-09-17T23:31:34.640Z,86.10
2018-09-17T23:34:04.056Z,86.60
2018-09-17T23:36:33.754Z,86.80
2018-09-17T23:39:02.986Z,87.10
2018-09-17T23:41:32.128Z,86.80
2018-09-17T23:44:01.278Z,87.10
2018-09-17T23:46:30.422Z,86.60
2018-09-17T23:48:59.561Z,86.10
2018-09-17T23:51:28.825Z,85.60
2018-09-17T23:53:57.993Z,85.30
2018-09-17T23:56:27.154Z,84.90
2018-09-17T23:58:56.502Z,85.10
